Time;durP1;ratioP1;P1;durP2;ratioP2;P2;SDS_P1;SDS_P2;PMS_P1;PMS_P2;Temp;Humidity;BMP_temperature;BMP_pressure;BME280_temperature;BME280_humidity;BME280_pressure;Samples;Min_cycle;Max_cycle;Signal;HPM_P1;HPM_P2
2022/07/02 00:02:17;;;;;;;13.10;11.27;;;13.40;99.90;;;;;;4974880;28;20475;-73
2022/07/02 00:04:52;;;;;;;14.00;10.87;;;13.40;99.90;;;;;;4974413;28;20075;-74
2022/07/02 00:07:19;;;;;;;13.05;10.50;;;13.40;99.90;;;;;;4974704;28;20035;-72
2022/07/02 00:09:46;;;;;;;12.38;9.20;;;13.50;99.90;;;;;;4970834;28;20597;-72
2022/07/02 00:12:14;;;;;;;17.50;10.98;;;13.50;99.90;;;;;;4973824;28;20117;-73
2022/07/02 00:14:42;;;;;;;12.52;10.18;;;13.50;99.90;;;;;;4974145;28;20083;-74
2022/07/02 00:17:10;;;;;;;12.90;10.60;;;13.50;99.90;;;;;;4975471;28;20031;-73
2022/07/02 00:19:39;;;;;;;11.50;9.77;;;13.60;99.90;;;;;;4973391;28;20026;-74
2022/07/02 00:22:06;;;;;;;15.90;11.70;;;13.60;99.90;;;;;;4974975;28;20018;-73
2022/07/02 00:24:39;;;;;;;17.65;11.73;;;13.70;99.90;;;;;;4974118;28;20027;-73
2022/07/02 00:27:09;;;;;;;14.68;11.00;;;13.70;99.90;;;;;;4973126;28;20444;-73
2022/07/02 00:30:00;;;;;;;16.65;10.52;;;13.70;99.90;;;;;;4974796;28;20157;-75
2022/07/02 00:32:33;;;;;;;15.15;11.88;;;13.80;99.90;;;;;;4972429;28;20042;-77
2022/07/02 00:35:09;;;;;;;17.40;12.52;;;13.90;99.90;;;;;;4972575;28;20480;-76
2022/07/02 00:37:40;;;;;;;19.13;13.77;;;14.10;99.90;;;;;;4974201;28;20388;-75
2022/07/02 00:40:08;;;;;;;21.52;14.15;;;14.30;99.90;;;;;;4974284;28;20496;-73
2022/07/02 00:42:37;;;;;;;15.88;12.80;;;14.40;99.90;;;;;;4975515;28;20042;-74
2022/07/02 00:45:05;;;;;;;16.27;11.52;;;14.60;99.90;;;;;;4974292;28;20029;-74
2022/07/02 00:47:34;;;;;;;21.70;12.50;;;14.70;99.90;;;;;;4973940;28;20037;-72
2022/07/02 00:50:04;;;;;;;14.57;9.50;;;14.90;99.90;;;;;;4973775;28;20025;-74
2022/07/02 00:52:32;;;;;;;19.40;10.32;;;15.00;99.90;;;;;;4974622;28;20041;-74
2022/07/02 00:54:59;;;;;;;19.30;9.38;;;15.00;99.90;;;;;;4960078;28;20116;-75
2022/07/02 00:57:27;;;;;;;19.33;10.00;;;15.00;99.90;;;;;;4961484;28;20034;-74
2022/07/02 00:59:54;;;;;;;18.33;8.95;;;15.00;99.90;;;;;;4961605;28;20093;-72
2022/07/02 01:02:23;;;;;;;21.20;13.20;;;15.00;99.90;;;;;;4960314;28;20027;-73
2022/07/02 01:04:52;;;;;;;14.88;8.45;;;15.00;99.90;;;;;;4963890;28;20476;-76
2022/07/02 01:07:21;;;;;;;16.23;7.50;;;15.00;99.90;;;;;;4959020;28;20034;-75
2022/07/02 01:12:36;;;;;;;18.13;8.70;;;14.90;99.90;;;;;;4961401;28;20058;-74
2022/07/02 01:15:04;;;;;;;13.73;7.18;;;14.90;99.90;;;;;;4964162;28;20031;-75
2022/07/02 01:17:31;;;;;;;12.43;5.38;;;14.90;99.90;;;;;;4958385;28;20086;-73
2022/07/02 01:19:58;;;;;;;10.40;4.78;;;14.90;99.90;;;;;;4952813;28;20027;-71
2022/07/02 01:22:37;;;;;;;10.57;4.75;;;14.90;99.90;;;;;;4965865;28;20031;-74
2022/07/02 01:25:06;;;;;;;10.20;4.30;;;14.90;99.90;;;;;;4964863;28;20382;-73
2022/07/02 01:27:33;;;;;;;15.35;5.93;;;14.90;99.90;;;;;;4953686;28;20049;-73
2022/07/02 01:30:01;;;;;;;12.93;4.72;;;15.00;99.90;;;;;;4956616;28;20147;-72
2022/07/02 01:32:28;;;;;;;10.40;3.58;;;15.00;99.90;;;;;;4961574;28;20123;-72
2022/07/02 01:35:04;;;;;;;12.45;3.30;;;15.10;99.90;;;;;;4962495;28;20082;-73
2022/07/02 01:37:31;;;;;;;10.48;3.80;;;15.00;99.90;;;;;;4963138;28;20039;-73
2022/07/02 01:39:59;;;;;;;10.63;4.85;;;15.10;99.90;;;;;;4962939;28;20092;-76
2022/07/02 01:42:26;;;;;;;8.45;4.38;;;15.10;99.90;;;;;;4961425;28;20027;-75
2022/07/02 01:44:53;;;;;;;11.05;3.55;;;15.10;99.90;;;;;;4962114;28;20030;-74
2022/07/02 01:47:21;;;;;;;9.20;4.68;;;15.00;99.90;;;;;;4962618;28;20090;-71
2022/07/02 01:49:48;;;;;;;10.80;4.65;;;15.00;99.90;;;;;;4964189;28;20027;-74
2022/07/02 01:52:16;;;;;;;12.45;5.10;;;15.00;99.90;;;;;;4972271;28;20027;-72
2022/07/02 01:54:45;;;;;;;8.20;4.60;;;15.00;99.90;;;;;;4972176;28;20504;-72
2022/07/02 01:57:13;;;;;;;14.05;4.80;;;15.00;99.90;;;;;;4971435;28;20027;-72
2022/07/02 01:59:41;;;;;;;7.55;3.10;;;15.10;99.90;;;;;;4971715;28;20034;-73
2022/07/02 02:02:08;;;;;;;9.52;4.13;;;15.10;99.90;;;;;;4960708;28;20113;-73
2022/07/02 02:04:36;;;;;;;7.43;3.60;;;15.20;99.90;;;;;;4966172;28;20642;-73
2022/07/02 02:07:04;;;;;;;10.45;4.00;;;15.20;99.90;;;;;;4952849;28;20027;-72
2022/07/02 02:09:32;;;;;;;8.85;3.85;;;15.30;99.90;;;;;;4953127;28;20547;-73
2022/07/02 02:12:00;;;;;;;12.13;5.70;;;15.40;99.90;;;;;;4952816;28;20031;-71
2022/07/02 02:14:27;;;;;;;9.20;3.55;;;15.50;99.90;;;;;;4952061;28;20082;-73
2022/07/02 02:16:55;;;;;;;11.32;4.18;;;15.60;99.90;;;;;;4953292;28;20027;-73
2022/07/02 02:19:22;;;;;;;7.95;4.30;;;15.70;99.90;;;;;;4972462;28;20035;-75
2022/07/02 02:21:50;;;;;;;7.43;4.57;;;15.80;99.90;;;;;;4964777;28;20499;-73
2022/07/02 02:24:17;;;;;;;5.55;3.92;;;15.80;99.90;;;;;;4951653;28;20031;-74
2022/07/02 02:26:44;;;;;;;6.93;4.40;;;15.80;99.90;;;;;;4952840;28;20020;-75
2022/07/02 02:29:12;;;;;;;7.13;4.93;;;15.80;99.90;;;;;;4952235;28;20519;-76
2022/07/02 02:31:39;;;;;;;9.80;6.00;;;15.80;99.90;;;;;;4950780;28;20046;-75
2022/07/02 02:34:06;;;;;;;12.35;4.90;;;15.70;99.90;;;;;;4950663;28;20045;-75
2022/07/02 02:36:34;;;;;;;8.27;5.30;;;15.60;99.90;;;;;;4950964;28;20023;-76
2022/07/02 02:39:02;;;;;;;15.07;6.65;;;15.60;99.90;;;;;;4951952;28;20058;-76
2022/07/02 02:41:29;;;;;;;11.85;5.88;;;15.50;99.90;;;;;;4953648;28;20027;-75
2022/07/02 02:43:57;;;;;;;11.80;6.30;;;15.40;99.90;;;;;;4953647;28;20027;-75
2022/07/02 02:46:25;;;;;;;10.77;5.47;;;15.40;99.90;;;;;;4953770;28;20019;-76
2022/07/02 02:48:55;;;;;;;8.68;6.30;;;15.30;99.90;;;;;;4952927;28;20049;-75
2022/07/02 02:51:23;;;;;;;22.98;20.75;;;15.20;99.90;;;;;;4952341;28;20162;-74
2022/07/02 02:53:52;;;;;;;12.27;10.18;;;15.10;99.90;;;;;;4953421;28;20031;-75
2022/07/02 02:56:19;;;;;;;10.88;9.25;;;15.10;99.90;;;;;;4953948;28;20074;-75
2022/07/02 02:58:46;;;;;;;8.13;7.38;;;15.00;99.90;;;;;;4953388;28;20035;-77
2022/07/02 03:01:13;;;;;;;17.02;14.85;;;15.10;99.90;;;;;;4953582;28;20027;-75
2022/07/02 03:03:41;;;;;;;12.88;7.18;;;15.00;99.90;;;;;;4954138;28;20436;-75
2022/07/02 03:06:08;;;;;;;6.32;5.72;;;15.00;99.90;;;;;;4952993;28;20038;-74
2022/07/02 03:08:36;;;;;;;7.63;4.82;;;15.00;99.90;;;;;;4952717;28;20031;-76
2022/07/02 03:11:03;;;;;;;6.63;4.70;;;15.00;99.90;;;;;;4956578;28;20015;-75
2022/07/02 03:13:33;;;;;;;8.50;5.22;;;15.10;99.90;;;;;;4955551;28;20097;-75
2022/07/02 03:16:07;;;;;;;5.60;3.80;;;15.00;99.90;;;;;;4957011;28;20096;-76
2022/07/02 03:18:35;;;;;;;7.45;4.32;;;14.90;99.90;;;;;;4940606;29;20155;-75
2022/07/02 03:21:02;;;;;;;4.95;2.83;;;14.90;99.90;;;;;;4955738;28;20030;-75
2022/07/02 03:23:34;;;;;;;5.22;2.08;;;15.00;99.90;;;;;;4957778;28;20019;-75
2022/07/02 03:26:04;;;;;;;4.93;2.75;;;14.80;99.90;;;;;;4967180;28;20028;-74
2022/07/02 03:28:31;;;;;;;7.72;3.65;;;14.70;99.90;;;;;;4972072;28;20038;-76
2022/07/02 03:30:58;;;;;;;7.95;4.32;;;14.70;99.90;;;;;;4956743;28;20130;-74
2022/07/02 03:33:29;;;;;;;6.90;3.92;;;14.70;99.90;;;;;;4957482;28;20361;-76
2022/07/02 03:35:56;;;;;;;7.30;4.85;;;14.70;99.90;;;;;;4956713;28;20130;-76
2022/07/02 03:38:24;;;;;;;6.80;4.13;;;14.70;99.90;;;;;;4972749;28;20036;-77
2022/07/02 03:40:51;;;;;;;8.88;5.45;;;14.70;99.90;;;;;;4958989;28;20035;-74
2022/07/02 03:43:18;;;;;;;11.20;3.58;;;14.70;99.90;;;;;;4957712;28;20050;-74
2022/07/02 03:45:46;;;;;;;11.90;3.20;;;14.70;99.90;;;;;;4966838;28;20023;-76
2022/07/02 03:48:14;;;;;;;11.25;3.38;;;14.70;99.90;;;;;;4971108;28;20126;-76
2022/07/02 03:50:42;;;;;;;9.85;3.45;;;14.80;99.90;;;;;;4975383;28;20030;-72
2022/07/02 03:53:11;;;;;;;14.52;4.03;;;14.80;99.90;;;;;;4975681;28;20452;-76
2022/07/02 03:55:38;;;;;;;13.95;4.97;;;14.80;99.90;;;;;;4974760;28;20109;-75
2022/07/02 03:58:05;;;;;;;18.25;3.92;;;14.80;99.90;;;;;;4976077;28;20040;-73
2022/07/02 04:00:33;;;;;;;13.90;3.83;;;14.80;99.90;;;;;;4972639;28;20027;-73
2022/07/02 04:03:00;;;;;;;15.32;2.22;;;14.80;99.90;;;;;;4973700;28;20031;-75
2022/07/02 04:05:28;;;;;;;17.98;2.97;;;14.80;99.90;;;;;;4955970;28;20074;-74
2022/07/02 04:07:58;;;;;;;12.30;2.63;;;14.80;99.90;;;;;;4966810;28;20022;-74
2022/07/02 04:10:26;;;;;;;11.02;2.15;;;14.70;99.90;;;;;;4975033;28;20483;-74
2022/07/02 04:12:54;;;;;;;20.80;2.60;;;14.70;99.90;;;;;;4959556;28;20045;-75
2022/07/02 04:15:23;;;;;;;15.20;3.00;;;14.60;99.90;;;;;;4974652;28;20026;-75
2022/07/02 04:17:50;;;;;;;25.05;4.28;;;14.60;99.90;;;;;;4975726;28;20039;-74
2022/07/02 04:20:17;;;;;;;15.20;3.08;;;14.60;99.90;;;;;;4970914;28;20050;-76
2022/07/02 04:22:45;;;;;;;22.33;3.92;;;14.70;99.90;;;;;;4968162;28;20366;-76
2022/07/02 04:25:15;;;;;;;24.75;6.70;;;14.70;99.90;;;;;;4976777;28;20543;-76
2022/07/02 04:27:43;;;;;;;35.85;7.57;;;14.60;99.90;;;;;;4962128;28;20134;-74
2022/07/02 04:30:13;;;;;;;26.88;5.00;;;14.70;99.90;;;;;;4973627;28;20050;-75
2022/07/02 04:32:41;;;;;;;24.58;4.35;;;14.70;99.90;;;;;;4974599;28;20027;-74
2022/07/02 04:35:09;;;;;;;19.83;4.05;;;14.80;99.90;;;;;;4968842;28;20046;-75
2022/07/02 04:37:36;;;;;;;18.33;4.20;;;14.80;99.90;;;;;;4960020;28;20117;-76
2022/07/02 04:40:04;;;;;;;16.58;4.82;;;14.80;99.90;;;;;;4972942;28;20041;-77
2022/07/02 04:42:32;;;;;;;14.40;3.55;;;14.80;99.90;;;;;;4972359;28;20117;-78
2022/07/02 04:45:00;;;;;;;13.55;2.88;;;14.80;99.90;;;;;;4969161;28;20038;-78
2022/07/02 04:47:28;;;;;;;21.25;3.78;;;14.70;99.90;;;;;;4971942;28;20023;-74
2022/07/02 04:49:55;;;;;;;17.42;4.18;;;14.70;99.90;;;;;;4973225;28;20077;-74
2022/07/02 04:52:23;;;;;;;22.88;3.28;;;14.70;99.90;;;;;;4971793;28;20030;-75
2022/07/02 04:54:50;;;;;;;17.92;3.05;;;14.70;99.90;;;;;;4970917;28;20472;-76
2022/07/02 04:57:18;;;;;;;22.80;3.42;;;14.70;99.90;;;;;;4971577;28;20039;-75
2022/07/02 04:59:45;;;;;;;15.63;3.42;;;14.80;99.90;;;;;;4953099;28;20031;-75
2022/07/02 05:02:13;;;;;;;20.63;4.32;;;14.70;99.90;;;;;;4965147;28;20034;-74
2022/07/02 05:04:41;;;;;;;23.77;3.78;;;14.70;99.90;;;;;;4970644;28;20058;-75
2022/07/02 05:07:08;;;;;;;22.77;4.10;;;14.70;99.90;;;;;;4958850;28;20023;-75
2022/07/02 05:09:35;;;;;;;20.05;3.95;;;14.70;99.90;;;;;;4965007;28;20041;-76
2022/07/02 05:12:03;;;;;;;31.65;5.57;;;14.70;99.90;;;;;;4961159;28;20046;-76
2022/07/02 05:14:31;;;;;;;25.58;4.47;;;14.80;99.90;;;;;;4964842;28;20015;-75
2022/07/02 05:16:58;;;;;;;21.33;3.20;;;14.80;99.90;;;;;;4961766;28;20394;-76
2022/07/02 05:19:27;;;;;;;22.10;4.20;;;14.80;99.90;;;;;;4964001;28;20039;-75
2022/07/02 05:21:54;;;;;;;24.90;4.07;;;14.90;99.90;;;;;;4963983;28;20019;-74
2022/07/02 05:24:21;;;;;;;19.40;3.28;;;14.80;99.90;;;;;;4961020;28;20031;-78
2022/07/02 05:26:49;;;;;;;14.65;3.47;;;14.90;99.90;;;;;;4957133;28;20051;-75
2022/07/02 05:29:16;;;;;;;26.83;4.03;;;14.90;99.90;;;;;;4952644;28;20034;-76
2022/07/02 05:31:44;;;;;;;23.98;3.80;;;15.00;99.90;;;;;;4952186;28;20037;-75
2022/07/02 05:34:14;;;;;;;23.98;3.53;;;14.90;99.90;;;;;;4954854;28;20023;-75
2022/07/02 05:36:41;;;;;;;27.83;4.30;;;15.00;99.90;;;;;;4954678;28;20599;-75
2022/07/02 05:39:08;;;;;;;28.73;5.03;;;14.90;99.90;;;;;;4953350;28;20122;-76
2022/07/02 05:41:36;;;;;;;37.40;6.13;;;15.00;99.90;;;;;;4953781;28;20021;-76
2022/07/02 05:44:04;;;;;;;22.85;4.32;;;15.00;99.90;;;;;;4970125;28;20027;-76
2022/07/02 05:46:31;;;;;;;19.80;4.47;;;15.00;99.90;;;;;;4974192;28;20081;-76
2022/07/02 05:48:58;;;;;;;30.25;4.65;;;15.00;99.90;;;;;;4973289;28;20105;-77
2022/07/02 05:51:25;;;;;;;26.27;4.65;;;15.00;99.90;;;;;;4972338;28;20019;-77
2022/07/02 05:53:53;;;;;;;23.65;5.20;;;15.00;99.90;;;;;;4974129;28;20026;-77
2022/07/02 05:56:20;;;;;;;26.70;3.60;;;15.00;99.90;;;;;;4973633;28;20026;-75
2022/07/02 05:58:47;;;;;;;35.30;6.63;;;15.00;99.90;;;;;;4973135;28;20041;-78
2022/07/02 06:01:15;;;;;;;30.55;5.72;;;15.10;99.90;;;;;;4974534;28;20018;-77
2022/07/02 06:03:42;;;;;;;25.92;4.22;;;15.10;99.90;;;;;;4973040;28;20022;-77
2022/07/02 06:08:55;;;;;;;24.40;4.22;;;15.00;99.90;;;;;;4974723;28;21671;-77
2022/07/02 06:11:22;;;;;;;37.33;5.95;;;15.00;99.90;;;;;;4974630;28;20034;-76
2022/07/02 06:13:51;;;;;;;27.50;4.97;;;15.00;99.90;;;;;;4974544;28;20646;-77
2022/07/02 06:16:18;;;;;;;32.83;4.68;;;15.00;99.90;;;;;;4973573;28;20034;-75
2022/07/02 06:18:46;;;;;;;30.13;4.97;;;15.10;99.90;;;;;;4973672;28;20031;-76
2022/07/02 06:21:13;;;;;;;24.02;4.40;;;15.10;99.90;;;;;;4973854;28;20110;-76
2022/07/02 06:23:40;;;;;;;30.92;5.00;;;15.00;99.90;;;;;;4973772;28;20031;-75
2022/07/02 06:26:08;;;;;;;22.40;4.80;;;15.00;99.90;;;;;;4974659;28;20130;-76
2022/07/02 06:28:35;;;;;;;33.53;4.45;;;15.10;99.90;;;;;;4977061;28;20759;-79
2022/07/02 06:31:03;;;;;;;25.60;3.92;;;15.10;99.90;;;;;;4973960;28;20420;-75
2022/07/02 06:33:32;;;;;;;31.05;4.22;;;15.10;99.90;;;;;;4978707;28;20031;-77
2022/07/02 06:36:00;;;;;;;21.83;4.00;;;15.10;99.90;;;;;;4975114;28;20479;-75
2022/07/02 06:38:28;;;;;;;29.95;3.40;;;15.10;99.90;;;;;;4974676;28;20467;-74
2022/07/02 06:40:56;;;;;;;25.90;3.33;;;15.10;99.90;;;;;;4975017;28;20023;-76
2022/07/02 06:43:25;;;;;;;32.17;5.18;;;15.20;99.90;;;;;;4975002;28;20023;-77
2022/07/02 06:45:53;;;;;;;24.13;3.53;;;15.10;99.90;;;;;;4979783;28;20050;-76
2022/07/02 06:48:20;;;;;;;28.67;4.20;;;15.00;99.90;;;;;;4979681;28;20034;-77
2022/07/02 06:50:47;;;;;;;23.83;3.95;;;15.10;99.90;;;;;;4978706;28;20027;-77
2022/07/02 06:53:15;;;;;;;17.55;3.65;;;15.00;99.90;;;;;;4977570;28;20042;-75
2022/07/02 06:55:42;;;;;;;22.63;3.30;;;15.10;99.90;;;;;;4978690;28;20023;-78
2022/07/02 06:58:10;;;;;;;29.90;4.95;;;15.00;99.90;;;;;;4977819;28;20039;-77
2022/07/02 07:00:37;;;;;;;21.30;3.55;;;15.00;99.90;;;;;;4977944;28;20019;-78
2022/07/02 07:03:07;;;;;;;26.77;5.53;;;14.90;99.90;;;;;;4977593;28;20063;-79
2022/07/02 07:05:36;;;;;;;30.67;4.88;;;14.90;99.90;;;;;;4977247;28;20022;-78
2022/07/02 07:08:04;;;;;;;30.52;5.55;;;14.90;99.90;;;;;;4976584;28;20031;-78
2022/07/02 07:10:32;;;;;;;35.70;5.60;;;14.90;99.90;;;;;;4978145;28;20061;-79
2022/07/02 07:12:59;;;;;;;41.17;6.60;;;14.90;99.90;;;;;;4979544;28;20369;-80
2022/07/02 07:15:26;;;;;;;39.47;5.88;;;14.90;99.90;;;;;;4978461;28;20094;-78
2022/07/02 07:17:54;;;;;;;28.17;4.55;;;15.00;99.90;;;;;;4978749;28;20437;-77
2022/07/02 07:20:27;;;;;;;26.17;4.60;;;15.00;99.90;;;;;;4977215;28;20026;-78
2022/07/02 07:22:55;;;;;;;34.70;6.07;;;15.00;99.90;;;;;;4977614;28;20102;-79
2022/07/02 07:25:23;;;;;;;17.30;4.03;;;14.90;99.90;;;;;;4977330;28;20031;-75
2022/07/02 07:27:50;;;;;;;26.63;4.50;;;15.00;99.90;;;;;;4977369;28;20030;-77
2022/07/02 07:30:18;;;;;;;21.55;3.65;;;15.00;99.90;;;;;;4976340;28;20078;-77
2022/07/02 07:32:45;;;;;;;23.45;3.63;;;15.00;99.90;;;;;;4977092;28;20035;-76
2022/07/02 07:35:13;;;;;;;14.93;3.45;;;14.90;99.90;;;;;;4976651;28;20029;-78
2022/07/02 07:37:40;;;;;;;34.83;4.65;;;14.90;99.90;;;;;;4975967;28;20039;-78
2022/07/02 07:40:11;;;;;;;25.02;5.78;;;14.90;99.90;;;;;;4976015;28;20098;-76
2022/07/02 07:42:38;;;;;;;27.92;4.85;;;14.90;99.90;;;;;;4976213;28;20029;-76
2022/07/02 07:45:06;;;;;;;27.77;5.70;;;14.90;99.90;;;;;;4975431;28;20471;-76
2022/07/02 07:47:33;;;;;;;29.63;7.85;;;14.90;99.90;;;;;;4976257;28;20031;-78
2022/07/02 07:50:00;;;;;;;33.60;5.47;;;15.00;99.90;;;;;;4975848;28;20420;-76
2022/07/02 07:52:28;;;;;;;27.15;4.93;;;14.90;99.90;;;;;;4975605;28;20019;-76
2022/07/02 07:54:55;;;;;;;34.10;8.30;;;15.00;99.90;;;;;;4975658;28;20029;-76
2022/07/02 07:57:22;;;;;;;26.45;6.05;;;15.00;99.90;;;;;;4974862;28;20023;-78
2022/07/02 07:59:51;;;;;;;31.88;5.80;;;15.00;99.90;;;;;;4976468;28;20038;-77
2022/07/02 08:02:19;;;;;;;40.97;8.80;;;15.00;99.90;;;;;;4975625;28;20023;-76
2022/07/02 08:04:47;;;;;;;38.88;7.05;;;15.00;99.90;;;;;;4975143;28;20029;-75
2022/07/02 08:07:14;;;;;;;41.38;7.65;;;15.00;99.90;;;;;;4975337;28;20546;-76
2022/07/02 08:09:41;;;;;;;33.33;5.22;;;15.00;99.90;;;;;;4974993;28;20492;-75
2022/07/02 08:12:09;;;;;;;28.67;5.28;;;14.90;99.90;;;;;;4975268;28;20033;-76
2022/07/02 08:14:36;;;;;;;31.75;4.15;;;14.90;99.90;;;;;;4975156;28;20070;-76
2022/07/02 08:17:03;;;;;;;24.77;3.90;;;14.80;99.90;;;;;;4974682;28;20026;-76
2022/07/02 08:19:31;;;;;;;37.97;5.22;;;14.80;99.90;;;;;;4974504;28;20386;-74
2022/07/02 08:21:58;;;;;;;38.80;5.45;;;14.90;99.90;;;;;;4973487;28;20022;-76
2022/07/02 08:24:25;;;;;;;35.08;5.82;;;14.80;99.90;;;;;;4974352;28;20038;-77
2022/07/02 08:26:52;;;;;;;30.40;5.13;;;14.90;99.90;;;;;;4974594;28;20388;-75
2022/07/02 08:29:20;;;;;;;41.38;6.53;;;14.90;99.90;;;;;;4973961;28;20468;-75
2022/07/02 08:31:47;;;;;;;31.30;6.03;;;14.90;99.90;;;;;;4975637;28;20066;-77
2022/07/02 08:34:14;;;;;;;33.50;5.05;;;14.90;99.90;;;;;;4974769;28;20026;-77
2022/07/02 08:36:42;;;;;;;40.10;5.93;;;14.90;99.90;;;;;;4974868;28;20049;-78
2022/07/02 08:39:10;;;;;;;32.53;4.35;;;14.90;99.90;;;;;;4975144;28;20031;-77
2022/07/02 08:41:38;;;;;;;28.08;3.97;;;15.00;99.90;;;;;;4974862;28;20027;-77
2022/07/02 08:44:07;;;;;;;33.17;5.72;;;15.00;99.90;;;;;;4974405;28;20023;-77
2022/07/02 08:46:42;;;;;;;22.00;5.05;;;15.00;99.90;;;;;;4974719;28;20050;-77
2022/07/02 08:49:11;;;;;;;32.00;4.47;;;15.00;99.90;;;;;;4974504;28;20023;-77
2022/07/02 08:51:38;;;;;;;25.40;4.22;;;15.00;99.90;;;;;;4974392;28;20028;-77
2022/07/02 08:54:06;;;;;;;26.58;5.10;;;14.90;99.90;;;;;;4974272;28;20098;-75
2022/07/02 08:56:33;;;;;;;28.45;6.80;;;14.90;99.90;;;;;;4974212;28;20030;-76
2022/07/02 08:59:01;;;;;;;26.10;4.60;;;14.90;99.90;;;;;;4974627;28;20081;-77
2022/07/02 09:01:29;;;;;;;34.33;7.10;;;14.80;99.90;;;;;;4974449;28;20480;-74
2022/07/02 09:03:58;;;;;;;23.92;6.00;;;14.80;99.90;;;;;;4974193;28;20030;-77
2022/07/02 09:06:29;;;;;;;25.77;4.35;;;14.80;99.90;;;;;;4973978;28;20037;-76
2022/07/02 09:08:57;;;;;;;30.23;5.17;;;14.70;99.90;;;;;;4974234;28;20026;-75
2022/07/02 09:11:24;;;;;;;27.85;6.85;;;14.70;99.90;;;;;;4974739;28;20031;-77
2022/07/02 09:13:54;;;;;;;41.03;6.68;;;14.70;99.90;;;;;;4974001;28;20022;-78
2022/07/02 09:16:22;;;;;;;38.72;7.72;;;14.70;99.90;;;;;;4974108;28;20078;-76
2022/07/02 09:18:50;;;;;;;29.33;6.53;;;14.70;99.90;;;;;;4973346;28;20117;-78
2022/07/02 09:21:17;;;;;;;23.25;5.45;;;14.70;99.90;;;;;;4973280;28;20057;-75
2022/07/02 09:23:50;;;;;;;22.23;5.13;;;14.70;99.90;;;;;;4973284;28;20030;-76
2022/07/02 09:26:22;;;;;;;28.02;5.07;;;14.70;99.90;;;;;;4973601;28;20030;-78
2022/07/02 09:29:03;;;;;;;;;;;14.70;99.90;;;;;;4974417;28;20023;-78
2022/07/02 09:31:31;;;;;;;26.73;4.18;;;14.70;99.90;;;;;;4974304;28;20345;-76
2022/07/02 09:33:59;;;;;;;28.48;5.32;;;14.60;99.90;;;;;;4973919;28;20615;-76
2022/07/02 09:36:27;;;;;;;29.08;4.88;;;14.60;99.90;;;;;;4974185;28;20054;-76
2022/07/02 09:38:55;;;;;;;25.98;4.18;;;14.60;99.90;;;;;;4973215;28;20085;-76
2022/07/02 09:41:24;;;;;;;20.95;3.78;;;14.60;99.90;;;;;;4974685;28;20046;-79
2022/07/02 09:43:59;;;;;;;28.10;5.25;;;14.60;99.90;;;;;;4973569;28;20023;-78
2022/07/02 09:46:29;;;;;;;27.55;3.97;;;14.60;99.90;;;;;;4973306;28;20157;-77
2022/07/02 09:49:11;;;;;;;29.58;6.55;;;14.60;99.90;;;;;;4973559;28;20023;-77
2022/07/02 09:51:49;;;;;;;28.38;4.30;;;14.60;99.90;;;;;;4972817;28;20110;-75
2022/07/02 09:54:24;;;;;;;25.77;5.10;;;14.60;99.90;;;;;;4974219;28;20077;-77
2022/07/02 09:56:52;;;;;;;18.90;4.63;;;14.50;99.90;;;;;;4973444;28;20026;-78
2022/07/02 09:59:20;;;;;;;25.52;4.95;;;14.50;99.90;;;;;;4973963;28;20034;-79
2022/07/02 10:01:48;;;;;;;23.95;5.38;;;14.60;99.90;;;;;;4973772;28;20109;-78
2022/07/02 10:04:15;;;;;;;26.95;5.25;;;14.50;99.90;;;;;;4973047;28;20043;-78
2022/07/02 10:06:44;;;;;;;19.02;4.47;;;14.50;99.90;;;;;;4973275;28;20135;-78
2022/07/02 10:09:12;;;;;;;22.95;4.43;;;14.50;99.90;;;;;;4972591;28;20153;-79
2022/07/02 10:11:40;;;;;;;20.58;4.40;;;14.50;99.90;;;;;;4972843;28;20030;-80
2022/07/02 10:14:10;;;;;;;23.60;5.22;;;14.50;99.90;;;;;;4973236;28;20023;-79
2022/07/02 10:16:39;;;;;;;23.05;5.53;;;14.50;99.90;;;;;;4972742;28;20496;-79
2022/07/02 10:19:07;;;;;;;20.80;7.53;;;14.50;99.90;;;;;;4953401;28;20693;-76
2022/07/02 10:21:35;;;;;;;26.58;6.88;;;14.50;99.90;;;;;;4951381;28;20167;-77
2022/07/02 10:24:03;;;;;;;27.55;5.93;;;14.60;99.90;;;;;;4953343;28;20035;-78
2022/07/02 10:26:32;;;;;;;32.40;5.43;;;14.70;99.90;;;;;;4953402;28;20023;-78
2022/07/02 10:29:03;;;;;;;56.00;6.63;;;14.80;99.90;;;;;;4953364;28;20129;-76
2022/07/02 10:31:37;;;;;;;40.53;5.95;;;14.80;99.90;;;;;;4953318;28;20091;-76
2022/07/02 10:34:05;;;;;;;41.65;5.88;;;14.90;99.90;;;;;;4971013;28;20507;-75
2022/07/02 10:36:33;;;;;;;40.58;5.28;;;14.80;99.90;;;;;;4972501;28;20027;-78
2022/07/02 10:39:02;;;;;;;35.45;7.07;;;14.80;99.90;;;;;;4972730;28;20500;-74
2022/07/02 10:41:33;;;;;;;33.58;4.80;;;14.80;99.90;;;;;;4972924;28;20026;-77
2022/07/02 10:44:02;;;;;;;33.40;5.50;;;14.80;99.90;;;;;;4972757;28;20034;-76
2022/07/02 10:46:35;;;;;;;32.10;4.13;;;14.80;99.90;;;;;;4972567;28;20038;-77
2022/07/02 10:49:04;;;;;;;52.17;8.95;;;14.70;99.90;;;;;;4972552;28;20479;-76
2022/07/02 10:51:36;;;;;;;32.63;6.25;;;14.70;99.90;;;;;;4972671;28;20037;-76
2022/07/02 10:54:08;;;;;;;32.10;4.85;;;14.60;99.90;;;;;;4972395;28;20035;-76
2022/07/02 10:56:54;;;;;;;36.25;5.63;;;14.60;99.90;;;;;;4971599;28;20476;-77
2022/07/02 10:59:27;;;;;;;43.10;4.93;;;14.60;99.90;;;;;;4972498;28;20066;-75
2022/07/02 11:02:06;;;;;;;39.28;7.95;;;14.60;99.90;;;;;;4972871;28;20033;-78
2022/07/02 11:04:34;;;;;;;45.13;6.47;;;14.60;99.90;;;;;;4972799;28;20557;-75
2022/07/02 11:07:10;;;;;;;59.28;8.95;;;14.60;99.90;;;;;;4972321;28;20047;-77
2022/07/02 11:09:58;;;;;;;46.95;6.97;;;14.70;99.90;;;;;;4972319;28;20054;-77
2022/07/02 11:12:52;;;;;;;47.75;7.05;;;14.70;99.90;;;;;;4970693;28;20447;-76
2022/07/02 11:15:28;;;;;;;46.33;7.95;;;14.70;99.90;;;;;;4956300;28;20388;-74
2022/07/02 11:18:01;;;;;;;40.47;6.32;;;14.70;99.90;;;;;;4972287;28;20046;-76
2022/07/02 11:20:30;;;;;;;41.83;5.15;;;14.70;99.90;;;;;;4972576;28;20046;-75
2022/07/02 11:22:58;;;;;;;31.63;4.72;;;14.70;99.90;;;;;;4972508;28;20023;-75
2022/07/02 11:25:28;;;;;;;35.05;5.57;;;14.70;99.90;;;;;;4972670;28;20029;-74
2022/07/02 11:28:00;;;;;;;27.88;4.55;;;14.60;99.90;;;;;;4972809;28;20042;-74
2022/07/02 11:30:31;;;;;;;30.10;4.22;;;14.60;99.90;;;;;;4972174;28;20051;-76
2022/07/02 11:32:58;;;;;;;38.05;5.70;;;14.60;99.90;;;;;;4974093;28;20041;-74
2022/07/02 11:35:26;;;;;;;31.83;4.82;;;14.60;99.90;;;;;;4976054;28;20027;-76
2022/07/02 11:37:59;;;;;;;38.72;5.18;;;14.70;99.90;;;;;;4975583;28;20077;-77
2022/07/02 11:40:27;;;;;;;26.98;4.25;;;14.70;99.90;;;;;;4974960;28;20391;-77
2022/07/02 11:42:54;;;;;;;27.13;5.13;;;14.70;99.90;;;;;;4975564;28;20030;-77
2022/07/02 11:45:22;;;;;;;36.15;5.85;;;14.70;99.90;;;;;;4975576;28;20033;-76
2022/07/02 11:47:51;;;;;;;35.55;4.75;;;14.80;99.90;;;;;;4975677;28;20375;-76
2022/07/02 11:50:29;;;;;;;30.00;5.03;;;14.80;99.90;;;;;;4974246;28;20488;-75
2022/07/02 11:52:58;;;;;;;24.65;4.05;;;14.80;99.90;;;;;;4976078;28;20031;-75
2022/07/02 11:55:25;;;;;;;23.98;4.82;;;14.90;99.90;;;;;;4975524;28;20058;-77
2022/07/02 11:57:53;;;;;;;21.08;3.08;;;14.90;99.90;;;;;;4975589;28;20502;-77
2022/07/02 12:00:20;;;;;;;26.02;5.38;;;14.90;99.90;;;;;;4975086;28;20480;-75
2022/07/02 12:02:47;;;;;;;21.52;3.70;;;14.80;99.90;;;;;;4975222;28;20033;-77
2022/07/02 12:05:20;;;;;;;24.63;3.38;;;14.70;99.90;;;;;;4975439;28;20019;-75
2022/07/02 12:07:47;;;;;;;25.35;4.28;;;14.60;99.90;;;;;;4973558;28;20031;-76
2022/07/02 12:10:15;;;;;;;20.33;3.42;;;14.50;99.90;;;;;;4975143;28;20399;-76
2022/07/02 12:12:43;;;;;;;22.83;3.55;;;14.50;99.90;;;;;;4975250;28;20019;-77
2022/07/02 12:15:11;;;;;;;21.80;3.30;;;14.50;99.90;;;;;;4974884;28;20088;-77
2022/07/02 12:17:47;;;;;;;28.02;3.55;;;14.50;99.90;;;;;;4975046;28;20392;-76
2022/07/02 12:20:18;;;;;;;21.50;4.32;;;14.50;99.90;;;;;;4974939;28;20094;-78
2022/07/02 12:22:55;;;;;;;38.50;4.90;;;14.50;99.90;;;;;;4974697;28;20696;-76
2022/07/02 12:25:22;;;;;;;27.45;3.83;;;14.50;99.90;;;;;;4974488;28;20050;-78
2022/07/02 12:27:56;;;;;;;31.48;6.38;;;14.60;99.90;;;;;;4974931;28;20030;-76
2022/07/02 12:30:24;;;;;;;24.02;4.40;;;14.70;99.90;;;;;;4974292;28;20047;-75
2022/07/02 12:32:54;;;;;;;34.80;5.95;;;14.70;99.90;;;;;;4973399;28;20373;-76
2022/07/02 12:35:21;;;;;;;38.70;5.32;;;14.70;99.90;;;;;;4973355;28;20037;-75
2022/07/02 12:37:52;;;;;;;36.83;6.35;;;14.70;99.90;;;;;;4974884;28;20041;-75
2022/07/02 12:40:21;;;;;;;24.92;4.35;;;14.60;99.90;;;;;;4974511;28;20023;-75
2022/07/02 12:42:55;;;;;;;25.42;3.55;;;14.60;99.90;;;;;;4974354;28;20026;-76
2022/07/02 12:45:30;;;;;;;21.52;4.80;;;14.60;99.90;;;;;;4973700;28;20030;-74
2022/07/02 12:48:06;;;;;;;19.23;3.78;;;14.50;99.90;;;;;;4974609;28;20031;-74
2022/07/02 12:50:38;;;;;;;30.42;4.10;;;14.40;99.90;;;;;;4974676;28;20025;-75
2022/07/02 12:53:16;;;;;;;19.88;4.75;;;14.40;99.90;;;;;;4974380;28;20053;-75